Friendship, Arkansas
Current Conditions -  °F | °C
As of 6:56 AM on Friday 28 Nov 2014 (Local Time) from KADF Reporting Station
Haze Haze  
Wind Chill: 28°   Ceiling: Unl
Heat Index: 28°   Visibility: 5mi
Dew Point: 28°   Wind: 0mph
Humidity: 100%   Direction: NA
Pressure: 30.38"   Gusts: NA
Location:  34.22°N, 93°W
Report Text: KADF 281256Z AUTO 00000KT 5SM BR CLR M02/M02 A3038 RMK AO2 T10221022 SLP305
Loading
Personal Weather Stations






























Interactive Weather Map New forecast layout! Learn more

10-Day Weather Forecast

Advertisements
Track Severe Weather on mobile